Kalamazoo, MI

5:58 AM EDT on September 29, 2016 (GMT -0400)
Lawndale Ave | | Change Station

Elev 801 ft 42.28 °N, 85.48 °W | Updated 4 seconds ago

Rain
Rain Mist
57.9 °F
Feels Like 57.9 °F
N
2.0
Wind Variable Wind from NNE
Gusts 2.5 mph

Today
High -- | Low -- °F
--% Chance of Precip.
Yesterday
High -- | Low -- °F
Precip. -- in
Pressure 30.06 in
Visibility 3.0 miles
Clouds Few 1000 ft
Mostly Cloudy 2700 ft
Overcast 3800 ft
Dew Point 58 °F
Humidity 99%
Rainfall 0.43 in
Snow Depth Not available.
7:37 AM 7:25 PM
Waning Crescent, 2% visible
METAR KAZO 290953Z 35007KT 3SM RA BR FEW010 BKN027 OVC038 14/12 A3006 RMK AO2 SLP179 P0021 T01390122
Pressure 30.06 in
Visibility 3.0 miles
Clouds Few 1000 ft
Mostly Cloudy 2700 ft
Overcast 3800 ft
Dew Point 58 °F
Humidity 99%
Rainfall 0.43 in
Snow Depth Not available.
7:37 AM 7:25 PM
Waning Crescent, 2% visible
METAR KAZO 290953Z 35007KT 3SM RA BR FEW010 BKN027 OVC038 14/12 A3006 RMK AO2 SLP179 P0021 T01390122

10-Day Weather Forecast

Almanac

Astronomy

Sep. 29, 2016 Rise Set
Actual Time
Civil Twilight
Nautical Twilight
Astronomical Twilight
Moon
Length of Visible Light
Length of Day
Tomorrow will be .
, % of the Moon is Illuminated

Today's Extremes

State Highs State Lows

Community

WunderPhotos

Upload Photos

1,942,446 photos uploaded!

WunderBlog® & News

Nearby

Air Quality

  Air Quality AQ Index Pollutant
Not available.

Snow Depth

Station Depth Elevation

Earthquake Activity

City Distance Mag. Time & Date
Minimum magnitude displayed is 2.5.

Coastal Water Temperatures

Place Temperature

Stations

Nearby Weather Stations

Station Location Temp. Windchill Dew Point Humidity Wind Precip. Elev Updated Type
                   

Watches & Warnings

There are currently no watches in effect.